createdAt,value
2023-04-22T00:02:30.712Z,72.60
2023-04-22T00:04:58.673Z,72.30
2023-04-22T00:07:26.590Z,72.90
2023-04-22T00:09:54.483Z,73.00
2023-04-22T00:12:23.695Z,74.60
2023-04-22T00:14:51.630Z,74.30
2023-04-22T00:17:19.393Z,74.00
2023-04-22T00:19:47.680Z,74.10
2023-04-22T00:22:15.744Z,75.00
2023-04-22T00:24:43.913Z,74.60
2023-04-22T00:27:11.781Z,76.60
2023-04-22T00:29:41.244Z,74.50
2023-04-22T00:32:09.508Z,73.90
2023-04-22T00:34:37.276Z,74.30
2023-04-22T00:37:05.233Z,73.50
2023-04-22T00:39:33.040Z,75.80
2023-04-22T00:42:01.918Z,76.10
2023-04-22T00:44:30.880Z,76.40
2023-04-22T00:47:00.608Z,76.70
2023-04-22T00:49:28.848Z,76.60
2023-04-22T00:51:56.671Z,76.30
2023-04-22T00:54:24.556Z,76.60
2023-04-22T00:56:52.730Z,76.90
2023-04-22T00:59:21.372Z,76.70
2023-04-22T01:01:49.198Z,76.10
2023-04-22T01:04:18.935Z,76.20
2023-04-22T01:06:48.755Z,75.90
2023-04-22T01:09:16.658Z,76.60
2023-04-22T01:11:44.439Z,77.20
2023-04-22T01:14:12.258Z,76.70
2023-04-22T01:16:43.455Z,76.10
2023-04-22T01:19:12.870Z,75.90
2023-04-22T01:21:45.026Z,76.30
2023-04-22T01:24:14.238Z,75.60
2023-04-22T01:26:42.202Z,75.90
2023-04-22T01:29:12.902Z,75.10
2023-04-22T01:31:40.946Z,73.00
2023-04-22T01:34:09.077Z,73.60
2023-04-22T01:36:36.807Z,72.90
2023-04-22T01:39:04.796Z,71.70
2023-04-22T01:41:34.407Z,71.20
2023-04-22T01:44:04.728Z,71.40
2023-04-22T01:46:33.860Z,71.30
2023-04-22T01:49:01.824Z,70.70
2023-04-22T01:51:29.677Z,70.40
2023-04-22T01:53:57.644Z,70.60
2023-04-22T01:56:25.639Z,71.10
2023-04-22T01:58:56.780Z,70.60
2023-04-22T02:01:24.624Z,70.20
2023-04-22T02:03:52.726Z,70.00
2023-04-22T02:06:23.594Z,69.30
2023-04-22T02:08:51.575Z,69.40
2023-04-22T02:11:19.315Z,69.70
2023-04-22T02:13:47.150Z,68.40
2023-04-22T02:16:16.626Z,68.40
2023-04-22T02:18:44.484Z,69.00
2023-04-22T02:21:12.259Z,69.60
2023-04-22T02:23:41.420Z,70.10
2023-04-22T02:26:09.622Z,70.20
2023-04-22T02:28:37.417Z,69.80
2023-04-22T02:31:05.247Z,69.60
2023-04-22T02:33:34.416Z,70.20
2023-04-22T02:36:02.186Z,71.60
2023-04-22T02:38:29.940Z,71.60
2023-04-22T02:40:57.806Z,72.50
2023-04-22T02:43:28.616Z,73.40
2023-04-22T02:45:59.670Z,73.30
2023-04-22T02:48:27.543Z,72.80
2023-04-22T02:50:56.697Z,72.70
2023-04-22T02:53:24.448Z,70.60
2023-04-22T02:55:52.577Z,71.10
2023-04-22T02:58:20.295Z,70.80
2023-04-22T03:00:48.346Z,71.70
2023-04-22T03:03:16.288Z,72.00
2023-04-22T03:05:44.180Z,72.30
2023-04-22T03:08:13.335Z,73.30
2023-04-22T03:10:41.368Z,73.40
2023-04-22T03:13:09.116Z,71.90
2023-04-22T03:15:36.926Z,72.00
2023-04-22T03:18:04.791Z,73.30
2023-04-22T03:20:32.566Z,73.50
2023-04-22T03:23:01.353Z,73.30
2023-04-22T03:25:30.512Z,73.70
2023-04-22T03:27:58.273Z,73.30
2023-04-22T03:30:26.250Z,73.80
2023-04-22T03:32:54.149Z,73.20
2023-04-22T03:35:22.028Z,73.70
2023-04-22T03:37:49.851Z,74.80
2023-04-22T03:40:17.797Z,76.10
2023-04-22T03:42:47.002Z,76.00
2023-04-22T03:45:14.782Z,75.10
2023-04-22T03:47:42.559Z,75.40
2023-04-22T03:50:11.373Z,76.00
2023-04-22T03:52:39.108Z,76.30
2023-04-22T03:55:07.533Z,77.10
2023-04-22T03:57:37.065Z,77.70
2023-04-22T04:00:07.522Z,78.30
2023-04-22T04:02:35.447Z,79.30
2023-04-22T04:05:03.988Z,81.40
2023-04-22T04:07:32.021Z,79.70
2023-04-22T04:10:00.004Z,78.60
2023-04-22T04:12:27.898Z,77.90
2023-04-22T04:14:55.734Z,77.90
2023-04-22T04:17:25.938Z,77.30
2023-04-22T04:19:54.964Z,78.00
2023-04-22T04:22:22.823Z,77.40
2023-04-22T04:24:50.639Z,77.40
2023-04-22T04:27:18.405Z,77.10
2023-04-22T04:29:46.158Z,77.70
2023-04-22T04:32:14.274Z,78.10
2023-04-22T04:34:43.712Z,78.20
2023-04-22T04:37:11.686Z,77.70
2023-04-22T04:39:39.755Z,77.30
2023-04-22T04:42:08.324Z,77.00
2023-04-22T04:44:36.430Z,77.60
2023-04-22T04:47:05.247Z,77.90
2023-04-22T04:49:33.164Z,78.10
2023-04-22T04:52:02.763Z,77.80
2023-04-22T04:54:30.602Z,77.70
2023-04-22T04:57:00.799Z,78.40
2023-04-22T04:59:28.813Z,77.20
2023-04-22T05:01:56.738Z,77.40
2023-04-22T05:04:25.114Z,77.70
2023-04-22T05:06:53.145Z,76.90
2023-04-22T05:09:22.457Z,76.60
2023-04-22T05:11:50.796Z,75.20
2023-04-22T05:14:18.643Z,73.60
2023-04-22T05:16:46.606Z,73.50
2023-04-22T05:19:14.712Z,73.40
2023-04-22T05:21:42.472Z,72.40
2023-04-22T05:24:10.563Z,72.40
2023-04-22T05:26:40.055Z,72.40
2023-04-22T05:29:21.302Z,71.60
2023-04-22T05:31:49.268Z,71.50
2023-04-22T05:34:17.098Z,71.60
2023-04-22T05:36:44.949Z,70.80
2023-04-22T05:39:15.639Z,70.10
2023-04-22T05:41:46.992Z,70.10
2023-04-22T05:44:15.192Z,69.80
2023-04-22T05:46:43.149Z,69.50
2023-04-22T05:49:11.102Z,68.70
2023-04-22T05:51:39.023Z,68.00
2023-04-22T05:54:07.288Z,67.10
2023-04-22T05:56:36.306Z,67.60
2023-04-22T05:59:05.621Z,67.00
2023-04-22T06:01:33.516Z,66.90
2023-04-22T06:04:01.563Z,66.50
2023-04-22T06:06:33.369Z,66.10
2023-04-22T06:09:01.301Z,65.90
2023-04-22T06:11:29.409Z,65.70
2023-04-22T06:13:58.967Z,65.60
2023-04-22T06:16:28.725Z,65.30
2023-04-22T06:18:56.641Z,65.80
2023-04-22T06:21:26.811Z,65.40
2023-04-22T06:23:54.724Z,65.20
2023-04-22T06:26:22.640Z,64.30
2023-04-22T06:28:50.763Z,64.10
2023-04-22T06:31:19.784Z,63.70
2023-04-22T06:33:50.310Z,63.70
2023-04-22T06:36:18.048Z,63.40
2023-04-22T06:38:49.423Z,63.40
2023-04-22T06:41:17.949Z,63.00
2023-04-22T06:43:46.274Z,62.30
2023-04-22T06:46:14.218Z,61.60
2023-04-22T06:48:42.161Z,61.30
2023-04-22T06:51:11.450Z,60.70
2023-04-22T06:53:39.534Z,60.20
2023-04-22T06:56:07.969Z,59.60
2023-04-22T06:58:35.915Z,59.60
2023-04-22T07:01:03.878Z,59.20
2023-04-22T07:03:32.033Z,58.70
2023-04-22T07:06:00.150Z,58.10
2023-04-22T07:08:29.688Z,58.20
2023-04-22T07:10:57.864Z,57.60
2023-04-22T07:13:27.182Z,57.00
2023-04-22T07:15:55.196Z,56.50
2023-04-22T07:18:23.134Z,56.50
2023-04-22T07:20:51.425Z,56.00
2023-04-22T07:23:19.554Z,55.60
2023-04-22T07:25:49.093Z,55.10
2023-04-22T07:28:17.098Z,54.80
2023-04-22T07:31:46.492Z,54.30
2023-04-22T07:34:14.962Z,53.60
2023-04-22T07:36:42.935Z,53.40
2023-04-22T07:39:10.954Z,53.20
2023-04-22T07:41:40.329Z,53.30
2023-04-22T07:44:08.323Z,51.70
2023-04-22T07:46:36.245Z,52.20
2023-04-22T07:49:04.312Z,51.00
2023-04-22T07:51:32.689Z,51.00
2023-04-22T07:54:00.540Z,50.90
2023-04-22T07:56:28.587Z,50.60
2023-04-22T07:58:57.930Z,49.00
2023-04-22T08:01:25.980Z,47.20
2023-04-22T08:03:57.840Z,46.50
2023-04-22T08:06:26.257Z,43.50
2023-04-22T08:08:54.904Z,45.20
2023-04-22T08:11:23.109Z,45.70
2023-04-22T08:13:51.037Z,44.90
2023-04-22T08:16:21.505Z,44.70
2023-04-22T08:18:49.461Z,45.50
2023-04-22T08:21:20.459Z,47.10
2023-04-22T08:23:48.425Z,45.80
2023-04-22T08:26:16.963Z,44.00
2023-04-22T08:28:46.041Z,43.30
2023-04-22T08:31:14.160Z,43.00
2023-04-22T08:33:43.684Z,43.20
2023-04-22T08:36:11.540Z,41.80
2023-04-22T08:38:39.725Z,43.80
2023-04-22T08:41:07.947Z,41.00
2023-04-22T08:43:36.374Z,39.00
2023-04-22T08:46:04.545Z,36.80
2023-04-22T08:48:33.860Z,36.00
2023-04-22T08:51:07.053Z,36.10
2023-04-22T08:53:43.433Z,36.00
2023-04-22T08:56:15.493Z,34.30
2023-04-22T08:58:46.810Z,34.10
2023-04-22T09:01:15.366Z,33.70
2023-04-22T09:03:43.517Z,33.90
2023-04-22T09:06:13.271Z,33.70
2023-04-22T09:08:41.146Z,33.40
2023-04-22T09:11:09.710Z,33.60
2023-04-22T09:13:37.603Z,32.80
2023-04-22T09:16:05.652Z,33.60
2023-04-22T09:18:41.021Z,31.90
2023-04-22T09:21:09.889Z,31.70
2023-04-22T09:23:47.882Z,31.40
2023-04-22T09:26:18.189Z,32.80
2023-04-22T09:28:53.432Z,33.60
2023-04-22T09:31:22.613Z,33.80
2023-04-22T09:33:52.484Z,32.10
2023-04-22T09:36:23.939Z,31.10
2023-04-22T09:38:57.571Z,31.40
2023-04-22T09:41:29.423Z,30.90
2023-04-22T09:43:58.621Z,30.00
2023-04-22T09:46:30.759Z,31.20
2023-04-22T09:49:00.052Z,30.50
2023-04-22T09:51:29.033Z,30.20
2023-04-22T09:54:04.281Z,29.60
2023-04-22T09:56:43.153Z,30.00
2023-04-22T09:59:11.162Z,29.70
2023-04-22T10:01:41.025Z,28.90
2023-04-22T10:04:09.880Z,29.10
2023-04-22T10:06:37.798Z,29.00
2023-04-22T10:09:09.430Z,29.10
2023-04-22T10:11:37.611Z,28.10
2023-04-22T10:14:05.465Z,27.90
2023-04-22T10:16:35.737Z,27.40
2023-04-22T10:19:06.896Z,27.10
2023-04-22T10:21:35.519Z,24.50
2023-04-22T10:24:04.852Z,25.00
2023-04-22T10:26:49.624Z,24.90
2023-04-22T10:29:19.076Z,21.70
2023-04-22T10:31:51.976Z,22.30
2023-04-22T10:34:19.900Z,21.40
2023-04-22T10:36:55.013Z,21.80
2023-04-22T10:39:23.275Z,21.30
2023-04-22T10:42:06.244Z,18.30
2023-04-22T10:44:51.632Z,19.00
2023-04-22T10:47:27.492Z,16.40
2023-04-22T10:50:11.519Z,15.90
2023-04-22T10:52:41.601Z,15.50
2023-04-22T10:55:13.527Z,14.20
2023-04-22T10:57:44.105Z,14.40
2023-04-22T11:00:24.114Z,14.70
2023-04-22T11:03:10.456Z,13.40
2023-04-22T11:05:40.943Z,11.60
2023-04-22T11:08:12.765Z,9.30
2023-04-22T11:10:44.944Z,11.20
2023-04-22T11:13:15.991Z,7.70
2023-04-22T11:15:45.414Z,8.80
2023-04-22T11:18:20.784Z,7.50
2023-04-22T11:20:52.437Z,8.70
2023-04-22T11:23:25.665Z,5.40
2023-04-22T11:25:59.063Z,7.70
2023-04-22T11:28:28.761Z,8.80
2023-04-22T11:31:06.085Z,7.70
2023-04-22T11:33:35.100Z,6.10
2023-04-22T11:36:03.256Z,3.60
2023-04-22T11:38:31.562Z,4.10
2023-04-22T11:40:59.537Z,3.80
2023-04-22T11:43:32.331Z,1.30
2023-04-22T11:46:00.243Z,1.50
2023-04-22T11:48:29.207Z,1.00
2023-04-22T11:51:12.999Z,1.00
2023-04-22T11:53:51.999Z,1.00
2023-04-22T11:56:19.772Z,1.00
2023-04-22T11:58:48.944Z,1.00
2023-04-22T12:01:18.092Z,1.00
2023-04-22T12:03:46.134Z,1.00
2023-04-22T12:06:14.040Z,1.00
2023-04-22T12:08:43.041Z,1.00
2023-04-22T12:11:11.922Z,1.00
2023-04-22T12:13:43.101Z,1.00
2023-04-22T12:16:15.057Z,1.00
2023-04-22T12:18:49.580Z,1.00
2023-04-22T12:21:21.338Z,1.00
2023-04-22T12:23:51.562Z,1.00
2023-04-22T12:26:23.734Z,1.00
2023-04-22T12:28:53.506Z,1.00
2023-04-22T12:31:22.722Z,1.00
2023-04-22T12:33:51.042Z,1.00
2023-04-22T12:36:20.815Z,1.00
2023-04-22T12:38:48.804Z,1.00
2023-04-22T12:41:17.191Z,1.00
2023-04-22T12:43:45.059Z,1.00
2023-04-22T12:46:12.936Z,1.00
2023-04-22T12:48:42.739Z,1.00
2023-04-22T12:51:10.627Z,1.00
2023-04-22T12:53:38.370Z,1.00
2023-04-22T12:56:06.573Z,1.00
2023-04-22T12:58:34.285Z,1.00
2023-04-22T13:01:02.154Z,1.00
2023-04-22T13:03:30.016Z,1.00
2023-04-22T13:05:59.290Z,1.00
2023-04-22T13:08:27.803Z,1.00
2023-04-22T13:10:55.554Z,1.00
2023-04-22T13:13:23.266Z,1.00
2023-04-22T13:15:54.594Z,1.00
2023-04-22T13:18:23.802Z,1.00
2023-04-22T13:20:52.084Z,1.00
2023-04-22T13:23:26.095Z,1.00
2023-04-22T13:25:53.929Z,1.00
2023-04-22T13:28:21.824Z,1.00
2023-04-22T13:30:49.667Z,1.00
2023-04-22T13:33:17.466Z,1.00
2023-04-22T13:35:45.251Z,1.00
2023-04-22T13:38:16.018Z,1.00
2023-04-22T13:40:45.118Z,1.00
2023-04-22T13:43:12.914Z,1.00
2023-04-22T13:45:42.286Z,1.00
2023-04-22T13:48:10.291Z,1.00
2023-04-22T13:50:38.130Z,1.00
2023-04-22T13:53:09.739Z,1.00
2023-04-22T13:55:37.606Z,1.00
2023-04-22T13:58:07.627Z,1.00
2023-04-22T14:00:35.941Z,1.00
2023-04-22T14:03:06.746Z,1.00
2023-04-22T14:05:34.585Z,1.00
2023-04-22T14:08:02.441Z,1.00
2023-04-22T14:10:30.245Z,1.00
2023-04-22T14:12:57.978Z,1.00
2023-04-22T14:15:27.102Z,1.00
2023-04-22T14:17:54.923Z,1.00
2023-04-22T14:20:25.013Z,1.00
2023-04-22T14:22:55.042Z,1.00
2023-04-22T14:25:22.923Z,1.00
2023-04-22T14:27:50.690Z,1.00
2023-04-22T14:30:19.587Z,1.00
2023-04-22T14:32:48.728Z,1.00
2023-04-22T14:35:16.744Z,1.00
2023-04-22T14:37:45.029Z,1.00
2023-04-22T14:40:13.089Z,1.00
2023-04-22T14:42:41.269Z,1.00
2023-04-22T14:45:09.720Z,1.00
2023-04-22T14:47:37.517Z,1.00
2023-04-22T14:50:07.705Z,1.00
2023-04-22T14:52:35.465Z,1.00
2023-04-22T14:55:15.516Z,1.00
2023-04-22T14:57:47.877Z,1.00
2023-04-22T15:00:16.111Z,1.00
2023-04-22T15:02:44.009Z,1.00
2023-04-22T15:05:15.411Z,1.00
2023-04-22T15:07:45.625Z,1.00
2023-04-22T15:10:14.347Z,1.00
2023-04-22T15:12:42.104Z,1.00
2023-04-22T15:15:13.192Z,1.00
2023-04-22T15:17:41.203Z,1.00
2023-04-22T15:20:09.802Z,1.00
2023-04-22T15:22:41.022Z,1.00
2023-04-22T15:25:09.828Z,1.00
2023-04-22T15:27:38.505Z,1.00
2023-04-22T15:30:07.836Z,1.00
2023-04-22T15:32:36.153Z,1.00
2023-04-22T15:35:03.882Z,1.00
2023-04-22T15:37:31.815Z,1.00
2023-04-22T15:40:01.093Z,1.00
2023-04-22T15:42:28.835Z,1.00
2023-04-22T15:44:56.599Z,1.00
2023-04-22T15:47:25.616Z,1.00
2023-04-22T15:49:53.451Z,1.00
2023-04-22T15:52:21.288Z,1.00
2023-04-22T15:54:49.815Z,1.00
2023-04-22T15:57:18.835Z,1.00
2023-04-22T15:59:51.444Z,1.00
2023-04-22T16:02:24.448Z,1.00
2023-04-22T16:04:52.236Z,1.00
2023-04-22T16:07:19.964Z,1.00
2023-04-22T16:09:47.780Z,1.00
2023-04-22T16:12:16.310Z,1.00
2023-04-22T16:14:45.922Z,1.00
2023-04-22T16:17:13.898Z,1.00
2023-04-22T16:19:41.988Z,1.00
2023-04-22T16:22:10.250Z,1.00
2023-04-22T16:24:38.034Z,1.00
2023-04-22T16:27:05.798Z,1.00
2023-04-22T16:29:33.520Z,1.00
2023-04-22T16:32:02.798Z,1.00
2023-04-22T16:34:30.690Z,1.00
2023-04-22T16:36:58.399Z,1.00
2023-04-22T16:39:26.304Z,1.00
2023-04-22T16:41:54.834Z,1.00
2023-04-22T16:44:22.589Z,1.00
2023-04-22T16:46:50.359Z,1.00
2023-04-22T16:49:19.662Z,1.00
2023-04-22T16:51:47.574Z,1.00
2023-04-22T16:54:15.298Z,1.00
2023-04-22T16:56:43.068Z,1.00
2023-04-22T16:59:11.009Z,1.00
2023-04-22T17:01:39.777Z,1.00
2023-04-22T17:04:07.597Z,1.00
2023-04-22T17:06:39.629Z,1.00
2023-04-22T17:09:09.235Z,1.00
2023-04-22T17:11:37.186Z,1.00
2023-04-22T17:14:04.996Z,1.00
2023-04-22T17:16:33.216Z,1.00
2023-04-22T17:19:00.908Z,1.00
2023-04-22T17:21:28.974Z,1.00
2023-04-22T17:24:08.294Z,1.00
2023-04-22T17:26:37.016Z,1.00
2023-04-22T17:29:04.764Z,1.00
2023-04-22T17:31:33.518Z,1.00
2023-04-22T17:34:01.613Z,1.00
2023-04-22T17:36:29.378Z,1.00
2023-04-22T17:38:58.443Z,1.00
2023-04-22T17:41:26.228Z,1.00
2023-04-22T17:43:54.825Z,1.00
2023-04-22T17:46:22.593Z,1.00
2023-04-22T17:48:50.350Z,1.00
2023-04-22T17:51:18.060Z,1.00
2023-04-22T17:53:45.712Z,1.00
2023-04-22T17:56:15.170Z,1.00
2023-04-22T17:58:43.001Z,1.00
2023-04-22T18:01:10.742Z,1.00
2023-04-22T18:03:38.690Z,1.00
2023-04-22T18:06:06.908Z,1.00
2023-04-22T18:08:34.731Z,1.00
2023-04-22T18:11:03.198Z,1.00
2023-04-22T18:13:33.016Z,1.00
2023-04-22T18:16:01.032Z,1.00
2023-04-22T18:18:28.839Z,1.00
2023-04-22T18:20:56.685Z,1.00
2023-04-22T18:23:24.474Z,1.00
2023-04-22T18:25:53.863Z,1.00
2023-04-22T18:28:21.602Z,1.00
2023-04-22T18:30:50.770Z,1.00
2023-04-22T18:33:18.554Z,1.00
2023-04-22T18:35:46.296Z,1.00
2023-04-22T18:38:13.982Z,1.00
2023-04-22T18:40:42.314Z,1.00
2023-04-22T18:43:10.091Z,1.00
2023-04-22T18:45:37.863Z,1.00
2023-04-22T18:48:07.073Z,1.00
2023-04-22T18:50:34.934Z,1.00
2023-04-22T18:53:02.688Z,1.00
2023-04-22T18:55:30.537Z,1.00
2023-04-22T18:57:58.241Z,1.00
2023-04-22T19:00:26.636Z,1.00
2023-04-22T19:02:54.604Z,1.00
2023-04-22T19:05:23.947Z,1.00
2023-04-22T19:07:51.873Z,1.00
2023-04-22T19:10:19.888Z,1.00
2023-04-22T19:12:47.790Z,1.00
2023-04-22T19:15:15.702Z,1.00
2023-04-22T19:17:43.442Z,1.00
2023-04-22T19:20:12.093Z,1.00
2023-04-22T19:22:41.290Z,1.00
2023-04-22T19:25:09.836Z,1.00
2023-04-22T19:27:37.832Z,1.00
2023-04-22T19:30:06.992Z,1.00
2023-04-22T19:32:34.834Z,1.20
2023-04-22T19:35:04.133Z,2.10
2023-04-22T19:37:32.113Z,2.40
2023-04-22T19:40:01.200Z,3.70
2023-04-22T19:42:29.212Z,4.20
2023-04-22T19:44:58.933Z,4.40
2023-04-22T19:47:27.207Z,4.80
2023-04-22T19:49:56.386Z,5.70
2023-04-22T19:52:26.157Z,5.70
2023-04-22T19:54:56.114Z,5.90
2023-04-22T19:57:25.791Z,6.50
2023-04-22T19:59:55.021Z,7.00
2023-04-22T20:02:23.726Z,7.30
2023-04-22T20:04:55.248Z,8.10
2023-04-22T20:07:23.533Z,9.00
2023-04-22T20:09:52.902Z,9.80
2023-04-22T20:12:21.789Z,9.70
2023-04-22T20:14:51.131Z,10.60
2023-04-22T20:17:19.239Z,11.00
2023-04-22T20:19:47.298Z,10.70
2023-04-22T20:22:17.711Z,11.00
2023-04-22T20:24:46.547Z,11.70
2023-04-22T20:27:17.078Z,12.30
2023-04-22T20:29:46.252Z,12.00
2023-04-22T20:32:16.787Z,12.30
2023-04-22T20:34:44.931Z,12.60
2023-04-22T20:37:13.939Z,13.10
2023-04-22T20:39:43.348Z,13.60
2023-04-22T20:42:11.742Z,13.90
2023-04-22T20:44:39.765Z,14.20
2023-04-22T20:47:08.367Z,15.20
2023-04-22T20:49:41.534Z,15.60
2023-04-22T20:52:09.748Z,15.50
2023-04-22T20:54:37.762Z,16.40
2023-04-22T20:57:06.410Z,16.50
2023-04-22T20:59:34.341Z,16.90
2023-04-22T21:02:04.078Z,17.10
2023-04-22T21:04:33.316Z,16.70
2023-04-22T21:07:04.366Z,17.20
2023-04-22T21:09:33.683Z,17.60
2023-04-22T21:12:02.312Z,18.20
2023-04-22T21:14:30.780Z,19.00
2023-04-22T21:17:04.398Z,19.60
2023-04-22T21:19:34.040Z,19.80
2023-04-22T21:22:05.896Z,21.10
2023-04-22T21:24:34.917Z,21.80
2023-04-22T21:27:03.579Z,20.90
2023-04-22T21:29:32.573Z,20.90
2023-04-22T21:32:08.766Z,20.70
2023-04-22T21:34:37.483Z,20.50
2023-04-22T21:37:07.829Z,20.70
2023-04-22T21:39:36.263Z,21.10
2023-04-22T21:42:07.728Z,21.90
2023-04-22T21:44:37.139Z,22.60
2023-04-22T21:47:07.758Z,22.40
2023-04-22T21:49:35.833Z,22.20
2023-04-22T21:52:03.734Z,22.30
2023-04-22T21:54:34.236Z,23.40
2023-04-22T21:57:02.407Z,23.40
2023-04-22T21:59:31.656Z,24.10
2023-04-22T22:01:59.389Z,24.50
2023-04-22T22:04:27.252Z,24.60
2023-04-22T22:06:55.033Z,24.90
2023-04-22T22:09:22.884Z,25.00
2023-04-22T22:11:51.934Z,25.10
2023-04-22T22:14:19.613Z,25.10
2023-04-22T22:16:47.383Z,25.50
2023-04-22T22:19:15.132Z,25.80
2023-04-22T22:21:42.857Z,25.80
2023-04-22T22:24:17.727Z,25.90
2023-04-22T22:26:45.574Z,25.40
2023-04-22T22:29:15.634Z,26.30
2023-04-22T22:31:45.947Z,25.90
2023-04-22T22:34:13.692Z,27.10
2023-04-22T22:36:41.701Z,29.00
2023-04-22T22:39:11.887Z,29.80
2023-04-22T22:41:41.653Z,32.80
2023-04-22T22:44:11.054Z,35.20
2023-04-22T22:46:40.927Z,35.70
2023-04-22T22:49:08.710Z,36.10
2023-04-22T22:51:37.444Z,39.30
2023-04-22T22:54:05.802Z,43.00
2023-04-22T22:56:33.614Z,49.00
2023-04-22T22:59:01.419Z,51.70
2023-04-22T23:01:29.265Z,53.20
2023-04-22T23:03:58.491Z,55.30
2023-04-22T23:06:27.147Z,60.30
2023-04-22T23:08:54.896Z,60.90
2023-04-22T23:11:22.606Z,63.90
2023-04-22T23:13:50.428Z,65.90
2023-04-22T23:16:18.469Z,68.30
2023-04-22T23:18:46.949Z,66.90
2023-04-22T23:21:16.637Z,66.60
2023-04-22T23:23:47.913Z,67.90
2023-04-22T23:26:16.397Z,68.30
2023-04-22T23:28:44.639Z,70.60
2023-04-22T23:31:14.939Z,71.50
2023-04-22T23:33:43.289Z,72.30
2023-04-22T23:36:14.159Z,75.70
2023-04-22T23:38:43.282Z,75.30
2023-04-22T23:41:11.038Z,74.30
2023-04-22T23:43:38.807Z,74.90
2023-04-22T23:46:06.687Z,74.50
2023-04-22T23:48:34.778Z,74.90
2023-04-22T23:51:02.643Z,73.60
2023-04-22T23:53:30.355Z,74.40
2023-04-22T23:56:00.462Z,74.00
2023-04-22T23:58:28.619Z,72.40
